Wrenshall, MN (55797)

11:53 PM CDT on July 03, 2015 (GMT -0500)
Cloquet Carlton County | | Change Station
CLOSE
Current Station
Airport
Location: Cloquet,
Elevation: 1280 ft
Nearby Weather Stations

Elev 1280 ft 46.70 °N, 92.50 °W | Updated 18 minutes ago

Partly Cloudy
Partly Cloudy
61 °F
Feels Like 61 °F
N
5
Wind Variable Wind from NW

Today
High -- | Low -- °F
--% Chance of Precip.
Yesterday
High -- | Low -- °F
Precip. -- in
5:21 AM 9:05 PM
Waning Gibbous, 94% visible
Pressure 29.92 in
Visibility 7.0 miles
Clouds Clear
Dew Point 55 °F
Humidity 82%
Rainfall 0.00 in
Snow Depth Not available.
UV 0 out of 12
Pollen 4.90 out of 12
Air Quality Not available.
Flu Activity Not available.
METAR KCOQ 040435Z AUTO 32004KT 7SM CLR 16/13 A2992 RMK AO2

More Conditions Fewer Conditions

Pressure 29.92 in
Visibility 7.0 miles
Clouds Clear
Dew Point 55 °F
Humidity 82%
Rainfall 0.00 in
Snow Depth Not available.
UV 0 out of 12
Pollen 4.90 out of 12
Air Quality Not available.
Flu Activity Not available.
METAR KCOQ 040435Z AUTO 32004KT 7SM CLR 16/13 A2992 RMK AO2

More Conditions Fewer Conditions

10-Day Weather Forecast

×

Almanac

Astronomy

Jul. 03, 2015 Rise Set
Actual Time
Civil Twilight
Nautical Twilight
Astronomical Twilight
Moon
Length of Visible Light
Length of Day
Tomorrow will be .
, % of the Moon is Illuminated

Today's Extremes

State Highs State Lows

Community

WunderPhotos

Upload Photos

1,834,931 photos uploaded!

WunderBlogs® & News

Nearby

Air Quality

  Air Quality AQ Index Pollutant
Not available.

Snow Depth

Station Depth Elevation

Earthquake Activity

City Distance Mag. Time & Date
Minimum magnitude displayed is 2.5.

Coastal Water Temperatures

Place Temperature

Stations

Nearby Weather Stations

Station Location Temp. Windchill Dew Point Humidity Wind Precip. Elev Updated Type